Time;durP1;ratioP1;P1;durP2;ratioP2;P2;SDS_P1;SDS_P2;PMS_P1;PMS_P2;Temp;Humidity;BMP_temperature;BMP_pressure;BME280_temperature;BME280_humidity;BME280_pressure;Samples;Min_cycle;Max_cycle;Signal;HPM_P1;HPM_P2
2022/05/26 00:02:19;;;;;;;2.97;1.85;;;24.20;96.30;;;;;;5049329;28;20079;-73
2022/05/26 00:04:47;;;;;;;2.13;1.67;;;24.00;96.20;;;;;;5047810;28;20024;-73
2022/05/26 00:07:14;;;;;;;5.63;3.50;;;24.10;96.10;;;;;;5047929;28;20021;-73
2022/05/26 00:09:43;;;;;;;3.83;2.80;;;24.30;96.90;;;;;;5039966;28;20530;-72
2022/05/26 00:12:12;;;;;;;5.38;3.00;;;24.50;96.10;;;;;;5043911;28;20090;-73
2022/05/26 00:14:41;;;;;;;5.18;3.50;;;24.70;97.00;;;;;;5037168;28;20361;-74
2022/05/26 00:17:08;;;;;;;7.85;3.72;;;25.00;96.20;;;;;;5032538;28;20116;-74
2022/05/26 00:19:36;;;;;;;3.70;3.20;;;24.60;96.30;;;;;;5038349;28;20426;-73
2022/05/26 00:22:04;;;;;;;9.60;3.97;;;24.80;96.10;;;;;;5047334;28;20037;-73
2022/05/26 00:24:31;;;;;;;6.05;4.38;;;25.10;96.10;;;;;;5050857;28;20028;-72
2022/05/26 00:26:58;;;;;;;4.07;3.45;;;25.30;95.70;;;;;;5036364;28;20032;-73
2022/05/26 00:29:26;;;;;;;5.50;3.63;;;25.20;95.30;;;;;;5037675;28;20025;-73
2022/05/26 00:31:53;;;;;;;4.72;3.28;;;25.60;95.30;;;;;;5051581;28;20041;-73
2022/05/26 00:34:21;;;;;;;5.68;4.05;;;25.70;94.90;;;;;;5046236;28;20037;-72
2022/05/26 00:36:48;;;;;;;6.30;4.43;;;25.30;94.90;;;;;;5039034;28;20365;-72
2022/05/26 00:39:19;;;;;;;5.60;3.65;;;25.20;95.10;;;;;;5042415;28;20479;-72
2022/05/26 00:41:55;;;;;;;6.25;3.42;;;25.00;95.70;;;;;;5050093;28;20487;-72
2022/05/26 00:44:25;;;;;;;5.15;3.17;;;25.40;95.80;;;;;;5039119;28;20033;-71
2022/05/26 00:47:21;;;;;;;6.28;3.72;;;25.80;95.00;;;;;;5037404;28;20037;-72
2022/05/26 00:49:54;;;;;;;8.02;4.20;;;26.30;94.20;;;;;;5037264;28;20048;-72
2022/05/26 00:52:29;;;;;;;6.40;3.22;;;26.50;94.00;;;;;;5042345;28;20438;-72
2022/05/26 00:55:04;;;;;;;5.93;3.15;;;26.40;94.40;;;;;;5028375;28;20122;-72
2022/05/26 00:57:37;;;;;;;5.00;3.20;;;26.20;94.50;;;;;;5045254;28;20070;-71
2022/05/26 01:00:09;;;;;;;2.33;1.90;;;26.30;93.80;;;;;;5045714;28;20025;-72
2022/05/26 01:02:49;;;;;;;4.93;2.80;;;26.50;93.80;;;;;;5036518;28;20051;-72
2022/05/26 01:05:23;;;;;;;5.65;2.65;;;26.30;93.70;;;;;;5045235;28;20043;-72
2022/05/26 01:07:51;;;;;;;3.30;1.98;;;26.50;93.60;;;;;;5034361;28;20114;-72
2022/05/26 01:10:19;;;;;;;2.70;2.20;;;26.50;93.70;;;;;;5041494;28;20042;-72
2022/05/26 01:12:46;;;;;;;3.85;2.50;;;26.50;93.20;;;;;;5044664;28;20033;-72
2022/05/26 01:15:22;;;;;;;3.63;2.63;;;26.40;93.70;;;;;;5037435;28;20107;-70
2022/05/26 01:18:06;;;;;;;3.45;2.03;;;26.10;93.40;;;;;;5035315;28;20041;-71
2022/05/26 01:20:48;;;;;;;2.88;2.10;;;26.20;93.60;;;;;;5030430;28;20387;-72
2022/05/26 01:23:37;;;;;;;4.10;2.33;;;26.30;93.80;;;;;;5034968;28;20507;-71
2022/05/26 01:26:13;;;;;;;4.22;1.88;;;25.20;94.30;;;;;;5033608;28;20044;-72
2022/05/26 01:29:14;;;;;;;3.97;1.90;;;24.10;95.10;;;;;;5043047;28;20485;-71
2022/05/26 01:32:09;;;;;;;3.10;1.98;;;24.70;95.10;;;;;;5034914;28;20582;-72
2022/05/26 01:34:54;;;;;;;4.63;2.90;;;25.60;94.40;;;;;;5034319;28;20029;-72
2022/05/26 01:37:30;;;;;;;3.80;2.22;;;25.70;94.10;;;;;;5030978;28;20601;-72
2022/05/26 01:40:06;;;;;;;5.80;2.92;;;26.30;94.30;;;;;;5039432;28;20032;-72
2022/05/26 01:42:39;;;;;;;4.97;2.08;;;26.80;93.40;;;;;;5045260;28;20460;-73
2022/05/26 01:45:20;;;;;;;3.72;2.58;;;27.00;93.10;;;;;;5037341;28;20034;-74
2022/05/26 01:48:14;;;;;;;4.35;1.45;;;26.80;93.00;;;;;;5033991;28;20176;-72
2022/05/26 01:51:08;;;;;;;3.70;1.98;;;27.30;93.10;;;;;;5034005;28;20492;-72
2022/05/26 01:54:01;;;;;;;2.97;1.17;;;27.40;92.60;;;;;;5030585;28;20033;-71
2022/05/26 01:56:37;;;;;;;4.38;2.10;;;27.00;92.30;;;;;;5034277;28;20052;-70
2022/05/26 01:59:31;;;;;;;2.15;1.08;;;26.80;92.90;;;;;;5030893;28;20190;-72
2022/05/26 02:02:09;;;;;;;1.42;0.63;;;27.10;92.80;;;;;;5038639;28;20024;-72
2022/05/26 02:04:51;;;;;;;0.85;0.50;;;26.80;92.60;;;;;;5037055;28;20021;-72
2022/05/26 02:07:53;;;;;;;0.70;0.45;;;26.60;92.50;;;;;;5042546;28;20021;-73
2022/05/26 02:10:44;;;;;;;3.05;0.52;;;26.10;93.70;;;;;;5043258;28;20060;-71
2022/05/26 02:13:18;;;;;;;1.42;0.40;;;25.20;93.60;;;;;;5046800;28;20079;-72
2022/05/26 02:15:57;;;;;;;1.10;0.70;;;24.20;94.90;;;;;;5033351;28;20033;-73
2022/05/26 02:18:32;;;;;;;1.85;0.40;;;24.20;94.80;;;;;;5036766;28;20514;-72
2022/05/26 02:21:10;;;;;;;2.42;0.60;;;24.60;95.20;;;;;;5047000;28;20025;-75
2022/05/26 02:23:58;;;;;;;0.68;0.35;;;24.80;95.50;;;;;;5069205;28;20495;-72
2022/05/26 02:26:25;;;;;;;1.02;0.30;;;25.30;94.90;;;;;;5047872;28;20047;-73
2022/05/26 02:31:40;;;;;;;0.93;0.47;;;25.50;94.40;;;;;;5046632;28;20071;-72
2022/05/26 02:34:08;;;;;;;1.20;0.55;;;25.90;94.10;;;;;;5046898;28;20040;-70
2022/05/26 02:36:37;;;;;;;0.75;0.50;;;25.70;93.90;;;;;;5048004;28;20037;-71
2022/05/26 02:39:07;;;;;;;0.63;0.40;;;26.00;94.00;;;;;;5035401;28;20086;-70
2022/05/26 02:41:35;;;;;;;0.52;0.38;;;26.10;93.80;;;;;;5054360;28;20033;-71
2022/05/26 02:44:03;;;;;;;3.53;1.10;;;25.70;93.60;;;;;;5050644;28;20063;-71
2022/05/26 02:46:46;;;;;;;0.60;0.50;;;25.70;93.90;;;;;;5037309;28;20376;-70
2022/05/26 02:49:31;;;;;;;3.35;1.50;;;25.70;94.00;;;;;;5035601;28;20041;-71
2022/05/26 02:52:20;;;;;;;1.13;0.57;;;25.70;94.50;;;;;;5052917;28;20043;-72
2022/05/26 02:55:13;;;;;;;0.90;0.70;;;25.70;94.30;;;;;;5046578;28;20029;-75
2022/05/26 02:57:53;;;;;;;3.15;0.70;;;25.50;93.90;;;;;;5053175;28;20051;-71
2022/05/26 03:00:31;;;;;;;19.58;4.70;;;25.10;94.60;;;;;;5036931;28;20021;-70
2022/05/26 03:02:58;;;;;;;1.70;0.80;;;25.10;94.40;;;;;;5044160;28;20029;-71
2022/05/26 03:05:36;;;;;;;1.02;0.60;;;25.00;94.30;;;;;;5043129;28;20471;-71
2022/05/26 03:08:07;;;;;;;1.10;0.70;;;24.50;94.40;;;;;;5051431;28;20112;-69
2022/05/26 03:10:35;;;;;;;0.63;0.30;;;24.60;94.50;;;;;;5036455;28;20022;-72
2022/05/26 03:13:03;;;;;;;1.65;0.40;;;24.30;94.20;;;;;;5037539;28;20029;-70
2022/05/26 03:15:32;;;;;;;0.22;0.22;;;24.10;95.00;;;;;;5044086;28;20025;-70
2022/05/26 03:18:01;;;;;;;0.77;0.28;;;23.80;94.60;;;;;;5048975;28;20040;-72
2022/05/26 03:20:29;;;;;;;0.80;0.40;;;23.90;94.90;;;;;;5047482;28;20585;-72
2022/05/26 03:22:57;;;;;;;2.03;0.47;;;24.10;95.30;;;;;;5032774;28;20035;-72
2022/05/26 03:25:24;;;;;;;0.90;0.50;;;24.20;95.40;;;;;;5039841;28;20163;-72
2022/05/26 03:27:52;;;;;;;0.55;0.47;;;23.90;95.10;;;;;;5037966;28;20033;-72
2022/05/26 03:30:19;;;;;;;0.52;0.40;;;23.60;95.90;;;;;;5037470;28;20388;-73
2022/05/26 03:32:47;;;;;;;1.60;0.40;;;23.30;96.50;;;;;;5037930;28;20155;-71
2022/05/26 03:40:46;;;;;;;0.70;0.40;;;22.60;97.80;;;;;;5031199;28;20032;-72
2022/05/26 03:43:15;;;;;;;0.80;0.50;;;22.40;97.80;;;;;;5046713;28;20048;-70
2022/05/26 03:45:43;;;;;;;0.85;0.40;;;22.20;98.20;;;;;;5036030;28;20036;-72
2022/05/26 03:48:10;;;;;;;1.10;0.73;;;22.00;98.90;;;;;;5041835;28;20072;-70
2022/05/26 03:50:38;;;;;;;0.70;0.32;;;21.90;98.80;;;;;;5045646;28;20517;-72
2022/05/26 03:53:06;;;;;;;1.15;0.50;;;21.90;98.90;;;;;;5047956;28;20068;-70
2022/05/26 03:55:33;;;;;;;0.52;0.40;;;21.70;98.80;;;;;;5035007;28;20021;-72
2022/05/26 03:58:03;;;;;;;0.47;0.25;;;21.50;99.30;;;;;;5040010;28;20112;-71
2022/05/26 04:00:31;;;;;;;0.75;0.47;;;21.50;99.20;;;;;;5042430;28;20061;-72
2022/05/26 04:02:59;;;;;;;0.35;0.35;;;21.40;99.50;;;;;;5044346;28;20119;-71
2022/05/26 04:05:27;;;;;;;1.52;0.32;;;21.40;99.40;;;;;;5039309;28;20484;-71
2022/05/26 04:07:54;;;;;;;0.63;0.35;;;21.40;99.00;;;;;;5033992;28;20037;-70
2022/05/26 04:10:23;;;;;;;0.90;0.30;;;21.30;99.30;;;;;;5032129;28;20029;-71
2022/05/26 04:12:50;;;;;;;1.00;0.20;;;21.40;99.50;;;;;;5032715;28;20053;-71
2022/05/26 04:15:19;;;;;;;2.00;0.20;;;21.40;99.60;;;;;;5039500;28;20037;-72
2022/05/26 04:17:46;;;;;;;0.80;0.40;;;21.50;99.80;;;;;;5044976;28;20080;-72
2022/05/26 04:20:17;;;;;;;1.83;0.22;;;21.40;99.60;;;;;;5041745;28;20112;-72
2022/05/26 04:22:45;;;;;;;0.28;0.20;;;21.40;99.50;;;;;;5049095;28;20373;-71
2022/05/26 04:25:12;;;;;;;1.95;0.20;;;21.30;99.20;;;;;;5038197;28;20107;-70
2022/05/26 04:27:40;;;;;;;1.60;0.30;;;21.20;99.00;;;;;;5039479;28;20021;-69
2022/05/26 04:30:11;;;;;;;0.73;0.30;;;21.10;99.30;;;;;;5040981;28;20521;-70
2022/05/26 04:32:39;;;;;;;0.32;0.20;;;21.00;99.70;;;;;;5031815;28;20028;-70
2022/05/26 04:35:09;;;;;;;0.85;0.30;;;21.10;99.90;;;;;;5046737;28;20040;-70
2022/05/26 04:37:37;;;;;;;0.85;0.35;;;21.10;99.90;;;;;;5049961;28;20091;-71
2022/05/26 04:40:07;;;;;;;0.30;0.20;;;21.00;99.90;;;;;;5048921;28;20076;-73
2022/05/26 04:42:35;;;;;;;1.20;0.20;;;20.90;99.90;;;;;;5033145;28;20607;-70
2022/05/26 04:45:03;;;;;;;0.38;0.13;;;20.90;99.70;;;;;;5047568;28;20124;-71
2022/05/26 04:47:30;;;;;;;1.83;0.28;;;20.90;99.90;;;;;;5035699;28;20030;-72
2022/05/26 04:49:57;;;;;;;0.35;0.28;;;20.90;99.90;;;;;;5038803;28;20084;-72
2022/05/26 04:52:26;;;;;;;0.40;0.20;;;20.80;99.90;;;;;;5044793;28;20041;-72
2022/05/26 04:54:53;;;;;;;0.15;0.15;;;20.80;99.80;;;;;;5041738;28;20033;-71
2022/05/26 04:57:23;;;;;;;2.30;0.30;;;20.80;99.70;;;;;;5039971;28;20067;-73
2022/05/26 04:59:51;;;;;;;0.75;0.15;;;20.70;99.90;;;;;;5044673;28;20387;-71
2022/05/26 05:02:22;;;;;;;0.47;0.30;;;20.60;99.20;;;;;;5034574;28;20040;-72
2022/05/26 05:04:49;;;;;;;1.88;0.10;;;20.60;99.60;;;;;;5039107;28;20037;-72
2022/05/26 05:07:18;;;;;;;0.32;0.22;;;20.60;99.60;;;;;;5036053;28;20539;-71
2022/05/26 05:09:47;;;;;;;0.47;0.30;;;20.60;99.90;;;;;;5036156;28;20036;-72
2022/05/26 05:12:19;;;;;;;5.22;0.40;;;20.60;99.90;;;;;;5037873;28;20024;-73
2022/05/26 05:14:50;;;;;;;1.98;0.65;;;20.60;99.90;;;;;;5040209;28;20025;-71
2022/05/26 05:17:19;;;;;;;1.65;0.30;;;20.60;99.90;;;;;;5033420;28;20037;-71
2022/05/26 05:19:48;;;;;;;1.83;0.30;;;20.60;99.40;;;;;;5033711;28;20052;-72
2022/05/26 05:22:30;;;;;;;0.30;0.20;;;20.60;99.90;;;;;;5037953;28;20147;-73
2022/05/26 05:25:14;;;;;;;0.63;0.15;;;20.60;99.90;;;;;;5046197;28;20099;-70
2022/05/26 05:27:57;;;;;;;1.33;0.28;;;20.50;99.90;;;;;;5035498;28;20125;-73
2022/05/26 05:30:35;;;;;;;1.35;0.28;;;20.60;99.90;;;;;;5045216;28;20025;-72
2022/05/26 05:33:39;;;;;;;0.93;0.40;;;20.60;99.90;;;;;;5036214;28;20056;-71
2022/05/26 05:36:11;;;;;;;0.40;0.20;;;20.60;99.90;;;;;;5027791;28;20045;-72
2022/05/26 05:38:40;;;;;;;0.70;0.30;;;20.60;99.90;;;;;;5035085;28;20029;-72
2022/05/26 05:41:09;;;;;;;1.00;0.20;;;20.60;99.90;;;;;;5044047;28;20402;-71
2022/05/26 05:43:38;;;;;;;0.60;0.20;;;20.70;99.60;;;;;;5040128;28;20380;-71
2022/05/26 05:46:09;;;;;;;0.50;0.28;;;20.70;99.90;;;;;;5043272;28;20158;-69
2022/05/26 05:48:36;;;;;;;1.23;0.30;;;20.70;99.70;;;;;;5048533;28;20083;-73
2022/05/26 05:51:04;;;;;;;0.55;0.25;;;20.80;99.90;;;;;;5036317;28;20021;-71
2022/05/26 05:53:31;;;;;;;0.10;0.10;;;20.80;99.90;;;;;;5038837;28;20043;-72
2022/05/26 05:55:59;;;;;;;0.88;0.43;;;20.80;99.70;;;;;;5041846;28;20383;-72
2022/05/26 05:58:26;;;;;;;0.45;0.20;;;20.80;99.90;;;;;;5037429;28;20116;-73
2022/05/26 06:00:54;;;;;;;0.60;0.20;;;20.70;99.60;;;;;;5043775;28;20383;-72
2022/05/26 06:03:22;;;;;;;1.25;0.20;;;20.60;99.40;;;;;;5050043;28;20037;-72
2022/05/26 06:05:49;;;;;;;0.80;0.20;;;20.60;99.60;;;;;;5048240;28;20025;-71
2022/05/26 06:08:17;;;;;;;1.33;0.50;;;20.50;99.80;;;;;;5031978;28;20033;-72
2022/05/26 06:10:44;;;;;;;1.73;0.22;;;20.50;99.90;;;;;;5035042;28;20029;-71
2022/05/26 06:13:12;;;;;;;1.98;0.40;;;20.40;99.90;;;;;;5033486;28;20104;-70
2022/05/26 06:15:45;;;;;;;1.30;0.20;;;20.50;99.90;;;;;;5032355;28;20037;-71
2022/05/26 06:18:13;;;;;;;0.75;0.20;;;20.50;99.90;;;;;;5040234;28;20041;-71
2022/05/26 06:20:41;;;;;;;0.52;0.28;;;20.60;99.90;;;;;;5041965;28;20529;-70
2022/05/26 06:23:08;;;;;;;3.13;0.30;;;20.70;99.60;;;;;;5029145;28;20042;-71
2022/05/26 06:25:36;;;;;;;0.45;0.20;;;20.70;99.60;;;;;;5043082;28;20025;-71
2022/05/26 06:30:49;;;;;;;2.05;0.20;;;20.40;99.90;;;;;;5040210;28;20626;-70
2022/05/26 06:38:47;;;;;;;1.83;0.60;;;20.10;99.90;;;;;;5033560;28;20513;-73
2022/05/26 06:44:03;;;;;;;0.20;0.20;;;19.90;99.90;;;;;;5032031;28;20032;-72
2022/05/26 06:46:31;;;;;;;0.50;0.22;;;19.70;99.90;;;;;;5032323;28;20060;-72
2022/05/26 06:48:59;;;;;;;0.57;0.25;;;19.60;99.90;;;;;;5029175;28;20537;-73
2022/05/26 06:51:29;;;;;;;0.52;0.30;;;19.50;99.90;;;;;;5040178;28;20037;-72
2022/05/26 06:53:56;;;;;;;1.05;0.40;;;19.40;99.90;;;;;;5030525;28;20026;-72
2022/05/26 06:56:24;;;;;;;4.30;0.55;;;19.30;99.90;;;;;;5049831;28;20484;-73
2022/05/26 06:58:51;;;;;;;0.80;0.52;;;19.20;99.90;;;;;;5042086;28;20045;-72
2022/05/26 07:01:19;;;;;;;0.57;0.30;;;19.10;99.90;;;;;;5045844;28;20056;-73
2022/05/26 07:03:46;;;;;;;0.95;0.43;;;19.00;99.90;;;;;;5032618;28;20038;-71
2022/05/26 07:06:23;;;;;;;0.65;0.30;;;18.90;99.90;;;;;;5047804;28;20107;-71
2022/05/26 07:08:51;;;;;;;2.08;0.40;;;18.90;99.90;;;;;;5049517;28;20044;-72
2022/05/26 07:11:19;;;;;;;0.35;0.25;;;18.70;99.90;;;;;;5039975;28;20079;-72
2022/05/26 07:13:47;;;;;;;0.60;0.30;;;18.60;99.90;;;;;;5037708;28;20705;-72
2022/05/26 07:16:15;;;;;;;1.08;0.40;;;18.50;99.90;;;;;;5039424;28;20024;-71
2022/05/26 07:18:43;;;;;;;1.30;0.60;;;18.40;99.90;;;;;;5036901;28;20040;-72
2022/05/26 07:21:12;;;;;;;3.03;0.70;;;18.30;99.90;;;;;;5047135;28;20035;-72
2022/05/26 07:23:41;;;;;;;1.70;0.50;;;18.20;99.90;;;;;;5038480;28;20048;-72
2022/05/26 07:26:10;;;;;;;1.20;0.60;;;18.10;99.90;;;;;;5051927;28;20036;-72
2022/05/26 07:28:40;;;;;;;0.93;0.47;;;18.10;99.90;;;;;;5037273;28;20031;-73
2022/05/26 07:31:08;;;;;;;1.85;1.10;;;18.00;99.90;;;;;;5048883;28;20025;-72
2022/05/26 07:33:36;;;;;;;10.80;3.45;;;17.90;99.90;;;;;;5044831;28;20032;-69
2022/05/26 07:36:04;;;;;;;12.13;5.95;;;17.80;99.90;;;;;;5036405;28;20112;-70
2022/05/26 07:41:26;;;;;;;23.65;13.40;;;17.60;99.90;;;;;;5035325;28;20090;-73
2022/05/26 07:43:58;;;;;;;23.10;12.63;;;17.50;99.90;;;;;;5032580;28;20057;-74
2022/05/26 07:46:27;;;;;;;19.17;11.05;;;17.40;99.90;;;;;;5038385;28;20439;-70
2022/05/26 07:48:54;;;;;;;22.45;9.30;;;17.30;99.90;;;;;;5038494;28;20047;-70
2022/05/26 07:51:22;;;;;;;14.23;7.68;;;17.30;99.90;;;;;;5032344;28;20454;-70
2022/05/26 07:53:50;;;;;;;10.10;4.95;;;17.20;99.90;;;;;;5030787;28;20032;-71
2022/05/26 07:56:20;;;;;;;5.45;3.03;;;17.20;99.90;;;;;;5046220;28;20033;-72
2022/05/26 07:58:48;;;;;;;4.10;2.58;;;17.10;99.90;;;;;;5037078;28;20037;-71
2022/05/26 08:01:16;;;;;;;4.57;2.72;;;17.10;99.90;;;;;;5031521;28;20036;-71
2022/05/26 08:03:44;;;;;;;4.15;2.03;;;17.10;99.90;;;;;;5033103;28;20426;-71
2022/05/26 08:06:13;;;;;;;5.20;2.65;;;17.00;99.90;;;;;;5040242;28;20075;-72
2022/05/26 08:08:40;;;;;;;5.72;2.13;;;16.90;99.90;;;;;;5032659;28;20021;-72
2022/05/26 08:11:07;;;;;;;3.40;1.83;;;16.90;99.90;;;;;;5048239;28;20017;-70
2022/05/26 08:13:34;;;;;;;3.17;2.10;;;16.80;99.90;;;;;;5034261;28;20033;-70
2022/05/26 08:16:03;;;;;;;2.63;1.88;;;16.80;99.90;;;;;;5038874;28;20021;-70
2022/05/26 08:18:31;;;;;;;4.82;1.92;;;16.80;99.90;;;;;;5037586;28;20177;-71
2022/05/26 08:21:10;;;;;;;2.65;1.50;;;16.70;99.90;;;;;;5046503;28;20029;-71
2022/05/26 08:23:38;;;;;;;8.48;2.60;;;16.60;99.90;;;;;;5052632;28;20025;-71
2022/05/26 08:26:06;;;;;;;9.25;5.80;;;16.60;99.90;;;;;;5045649;28;20128;-71
2022/05/26 08:28:33;;;;;;;7.00;3.55;;;16.50;99.90;;;;;;5037544;28;20026;-71
2022/05/26 08:31:01;;;;;;;4.57;2.88;;;16.50;99.90;;;;;;5043813;28;20044;-71
2022/05/26 08:33:29;;;;;;;6.18;2.65;;;16.50;99.90;;;;;;5037341;28;20477;-72
2022/05/26 08:36:08;;;;;;;3.85;2.55;;;16.40;99.90;;;;;;5045867;28;20447;-73
2022/05/26 08:38:36;;;;;;;7.47;3.10;;;16.30;99.90;;;;;;5039068;28;20057;-73
2022/05/26 08:41:05;;;;;;;5.88;2.90;;;16.30;99.90;;;;;;5030453;28;20021;-71
2022/05/26 08:44:00;;;;;;;6.53;3.03;;;16.20;99.90;;;;;;5037559;28;20033;-71
2022/05/26 08:46:54;;;;;;;4.18;3.72;;;16.20;99.90;;;;;;5034322;28;20029;-73
2022/05/26 08:49:32;;;;;;;6.63;4.05;;;16.20;99.90;;;;;;5030573;28;20123;-72
2022/05/26 08:52:19;;;;;;;8.02;5.00;;;16.10;99.90;;;;;;5035928;28;20060;-72
2022/05/26 08:54:49;;;;;;;5.10;3.50;;;16.10;99.90;;;;;;5030660;28;20033;-70
2022/05/26 08:57:25;;;;;;;7.30;4.28;;;16.00;99.90;;;;;;5047954;28;20044;-73
2022/05/26 08:59:53;;;;;;;6.70;3.70;;;16.00;99.90;;;;;;5047575;28;20025;-72
2022/05/26 09:02:37;;;;;;;5.53;2.60;;;16.00;99.90;;;;;;5037530;28;20029;-72
2022/05/26 09:05:20;;;;;;;6.30;2.70;;;16.10;99.90;;;;;;5045451;28;20148;-72
2022/05/26 09:14:04;;;;;;;5.10;1.73;;;16.40;99.90;;;;;;5033481;28;20452;-72
2022/05/26 09:16:41;;;;;;;2.97;1.80;;;16.40;99.90;;;;;;5038815;28;20064;-72
2022/05/26 09:19:17;;;;;;;6.20;2.03;;;16.50;99.90;;;;;;5030652;28;20053;-71
2022/05/26 09:21:46;;;;;;;6.82;2.78;;;16.60;99.90;;;;;;5028557;28;20044;-73
2022/05/26 09:24:25;;;;;;;3.97;2.33;;;16.60;99.90;;;;;;5031078;28;20040;-72
2022/05/26 09:26:56;;;;;;;6.10;2.53;;;16.60;99.90;;;;;;5036365;28;20060;-73
2022/05/26 09:29:30;;;;;;;2.78;2.00;;;16.60;99.90;;;;;;5028990;28;20087;-73
2022/05/26 09:32:00;;;;;;;8.05;3.33;;;16.60;99.90;;;;;;5040675;28;20017;-72
2022/05/26 09:34:32;;;;;;;4.43;1.85;;;16.60;99.90;;;;;;5034344;28;20033;-72
2022/05/26 09:37:01;;;;;;;2.25;1.70;;;16.40;99.90;;;;;;5030394;28;20025;-72
2022/05/26 09:39:42;;;;;;;4.60;2.15;;;16.30;99.90;;;;;;5032289;28;21985;-73
2022/05/26 09:42:20;;;;;;;7.22;1.75;;;16.20;99.90;;;;;;5027214;28;20026;-72
2022/05/26 09:45:02;;;;;;;4.10;2.10;;;16.10;99.90;;;;;;5030303;28;20033;-72
2022/05/26 09:47:39;;;;;;;4.85;2.08;;;16.00;99.90;;;;;;5038449;28;20421;-71
2022/05/26 09:50:14;;;;;;;3.60;2.20;;;16.00;99.90;;;;;;5028883;28;20101;-71
2022/05/26 09:52:46;;;;;;;4.45;1.70;;;15.90;99.90;;;;;;5032238;28;20043;-71
2022/05/26 09:55:26;;;;;;;6.53;2.60;;;15.80;99.90;;;;;;5036225;28;20103;-72
2022/05/26 09:58:13;;;;;;;5.57;2.92;;;15.80;99.90;;;;;;5046927;28;20617;-72
2022/05/26 10:00:48;;;;;;;4.70;2.55;;;15.80;99.90;;;;;;5027812;28;20836;-71
2022/05/26 10:03:32;;;;;;;4.78;3.65;;;15.70;99.90;;;;;;5030226;28;20539;-71
2022/05/26 10:06:20;;;;;;;5.18;2.88;;;15.70;99.90;;;;;;5032503;28;20030;-72
2022/05/26 10:09:06;;;;;;;5.82;3.88;;;15.70;99.90;;;;;;5031327;28;20930;-72
2022/05/26 10:11:54;;;;;;;9.13;3.72;;;15.70;99.90;;;;;;5029614;28;20546;-71
2022/05/26 10:14:43;;;;;;;6.43;3.63;;;15.60;99.90;;;;;;5030024;28;20037;-71
2022/05/26 10:17:19;;;;;;;3.47;2.20;;;15.60;99.90;;;;;;5031092;28;20048;-72
2022/05/26 10:20:07;;;;;;;3.85;3.22;;;15.60;99.90;;;;;;5037997;28;20071;-73
2022/05/26 10:22:48;;;;;;;7.40;2.92;;;15.50;99.90;;;;;;5040784;28;20036;-71
2022/05/26 10:25:45;;;;;;;2.33;2.13;;;15.50;99.90;;;;;;5031947;28;20055;-70
2022/05/26 10:28:43;;;;;;;3.70;3.22;;;15.40;99.90;;;;;;5029822;28;20033;-70
2022/05/26 10:31:37;;;;;;;4.45;2.75;;;15.40;99.90;;;;;;5035429;28;20032;-71
2022/05/26 10:34:22;;;;;;;7.60;3.55;;;15.40;99.90;;;;;;5030974;28;20022;-71
2022/05/26 10:37:12;;;;;;;4.32;2.75;;;15.30;99.90;;;;;;5035206;28;20037;-72
2022/05/26 10:39:53;;;;;;;4.25;3.25;;;15.30;99.90;;;;;;5031719;28;20029;-74
2022/05/26 10:42:22;;;;;;;6.32;3.95;;;15.30;99.90;;;;;;5030795;28;20013;-71
2022/05/26 10:45:12;;;;;;;3.63;2.35;;;15.20;99.90;;;;;;5028553;28;20428;-72
2022/05/26 10:48:25;;;;;;;5.78;2.20;;;15.20;99.90;;;;;;5028841;28;20120;-74
2022/05/26 10:51:01;;;;;;;6.47;3.20;;;15.10;99.90;;;;;;5027339;28;20070;-73
2022/05/26 10:53:56;;;;;;;3.85;2.45;;;15.00;99.90;;;;;;5049023;28;20079;-76
2022/05/26 10:56:42;;;;;;;4.53;2.70;;;14.90;99.90;;;;;;5029556;28;20095;-74
2022/05/26 10:59:27;;;;;;;3.83;2.67;;;14.90;99.90;;;;;;5031556;28;20036;-72
2022/05/26 11:02:02;;;;;;;3.67;2.65;;;14.80;99.90;;;;;;5045157;28;20040;-72
2022/05/26 11:04:44;;;;;;;9.65;3.72;;;14.70;99.90;;;;;;5032726;28;20074;-73
2022/05/26 11:07:32;;;;;;;6.68;2.60;;;14.70;99.90;;;;;;5035313;28;20056;-73
2022/05/26 11:10:04;;;;;;;6.72;2.83;;;14.60;99.90;;;;;;5032905;28;20021;-72
2022/05/26 11:13:01;;;;;;;3.85;2.97;;;14.60;99.90;;;;;;5034536;28;21906;-71
2022/05/26 11:18:48;;;;;;;3.78;2.80;;;14.50;99.90;;;;;;5038206;28;20400;-73
2022/05/26 11:21:21;;;;;;;6.95;3.28;;;14.40;99.90;;;;;;5033564;28;20361;-73
2022/05/26 11:23:48;;;;;;;4.03;2.63;;;14.40;99.90;;;;;;5034391;28;20055;-72
2022/05/26 11:26:21;;;;;;;5.30;2.95;;;14.30;99.90;;;;;;5032305;28;20507;-72
2022/05/26 11:29:05;;;;;;;7.18;2.92;;;14.30;99.90;;;;;;5034265;28;20110;-73
2022/05/26 11:37:31;;;;;;;10.45;6.78;;;14.20;99.90;;;;;;5048251;28;20072;-72
2022/05/26 11:40:09;;;;;;;18.52;11.02;;;14.20;99.90;;;;;;5034868;28;20029;-73
2022/05/26 11:42:47;;;;;;;18.92;13.20;;;14.20;99.90;;;;;;5035957;28;20467;-72
2022/05/26 11:45:17;;;;;;;15.65;10.05;;;14.10;99.90;;;;;;5031298;28;20033;-71
2022/05/26 11:48:26;;;;;;;15.15;8.93;;;14.10;99.90;;;;;;5035589;28;20539;-72
2022/05/26 11:50:55;;;;;;;12.05;8.32;;;14.00;99.90;;;;;;5035584;28;20112;-72
2022/05/26 11:53:44;;;;;;;15.80;9.32;;;14.00;99.90;;;;;;5030019;28;20668;-71
2022/05/26 11:56:28;;;;;;;15.18;8.77;;;13.90;99.90;;;;;;5032307;28;20040;-72
2022/05/26 11:59:32;;;;;;;15.95;9.40;;;13.90;99.90;;;;;;5035548;28;20128;-73
2022/05/26 12:02:05;;;;;;;9.55;7.18;;;13.80;99.90;;;;;;5032775;28;20029;-70
2022/05/26 12:04:38;;;;;;;7.68;5.78;;;13.80;99.90;;;;;;5037341;28;20041;-72
2022/05/26 12:07:27;;;;;;;9.13;5.47;;;13.80;99.90;;;;;;5032947;28;20890;-73
2022/05/26 12:09:59;;;;;;;6.72;3.08;;;13.70;99.90;;;;;;5032667;28;20086;-72
2022/05/26 12:12:27;;;;;;;6.45;3.45;;;13.70;99.90;;;;;;5033505;28;20024;-71
2022/05/26 12:14:57;;;;;;;5.05;2.95;;;13.70;99.90;;;;;;5032527;28;20415;-72
2022/05/26 12:17:48;;;;;;;3.72;2.78;;;13.70;99.90;;;;;;5034731;28;20091;-73
2022/05/26 12:20:21;;;;;;;3.55;3.10;;;13.70;99.90;;;;;;5033508;28;20211;-73
2022/05/26 12:22:52;;;;;;;4.78;3.35;;;13.70;99.90;;;;;;5034249;28;20502;-73
2022/05/26 12:25:25;;;;;;;6.70;3.63;;;13.70;99.90;;;;;;5036289;28;20099;-74
2022/05/26 12:28:00;;;;;;;6.60;3.65;;;13.70;99.90;;;;;;5036101;28;20059;-74
2022/05/26 12:30:30;;;;;;;5.85;4.05;;;13.70;99.90;;;;;;5030781;28;20376;-74
2022/05/26 12:33:00;;;;;;;8.27;3.65;;;13.70;99.90;;;;;;5033687;28;20029;-74
2022/05/26 12:35:35;;;;;;;7.63;4.18;;;13.70;99.90;;;;;;5031678;28;20051;-76
2022/05/26 12:38:23;;;;;;;8.40;4.25;;;13.70;99.90;;;;;;5034460;28;20094;-75
2022/05/26 12:41:15;;;;;;;5.85;3.60;;;13.70;99.90;;;;;;5031979;28;20045;-74
2022/05/26 12:44:03;;;;;;;7.30;4.55;;;13.70;99.90;;;;;;5032648;28;20033;-73
2022/05/26 12:46:46;;;;;;;6.88;4.10;;;13.70;99.90;;;;;;5041484;28;20025;-74
2022/05/26 12:49:34;;;;;;;10.13;5.15;;;13.80;99.90;;;;;;5032548;28;20448;-74
2022/05/26 12:52:30;;;;;;;6.90;4.63;;;13.70;99.90;;;;;;5034007;28;20387;-74
2022/05/26 12:55:03;;;;;;;6.43;3.72;;;13.70;99.90;;;;;;5032427;28;20037;-74
2022/05/26 12:57:32;;;;;;;6.82;4.50;;;13.60;99.90;;;;;;5032343;28;20042;-75
2022/05/26 13:00:30;;;;;;;5.18;4.07;;;13.50;99.90;;;;;;5032005;28;20547;-74
2022/05/26 13:03:08;;;;;;;6.22;3.90;;;13.50;99.90;;;;;;5034140;28;20029;-73
2022/05/26 13:05:45;;;;;;;7.78;4.40;;;13.40;99.90;;;;;;5037058;28;20070;-75
2022/05/26 13:08:23;;;;;;;7.80;3.55;;;13.40;99.90;;;;;;5036978;28;20048;-76
2022/05/26 13:10:55;;;;;;;4.55;3.47;;;13.30;99.90;;;;;;5041507;28;20056;-75
2022/05/26 13:13:43;;;;;;;6.32;2.97;;;13.30;99.90;;;;;;5030996;28;20029;-74
2022/05/26 13:16:39;;;;;;;3.80;3.28;;;13.20;99.90;;;;;;5033950;28;20108;-75
2022/05/26 13:19:19;;;;;;;6.97;3.78;;;13.20;99.90;;;;;;5032550;28;20041;-74
2022/05/26 13:21:49;;;;;;;3.95;2.75;;;13.20;99.90;;;;;;5033309;28;20041;-74
2022/05/26 13:24:16;;;;;;;5.63;3.17;;;13.10;99.90;;;;;;5049646;28;20029;-74
2022/05/26 13:26:46;;;;;;;6.07;3.35;;;13.00;99.90;;;;;;5041484;28;20040;-74
2022/05/26 13:29:19;;;;;;;6.15;3.05;;;12.90;99.90;;;;;;5031358;28;20026;-72
2022/05/26 13:34:43;;;;;;;5.72;3.45;;;12.90;99.90;;;;;;5033346;28;20494;-73
2022/05/26 13:37:25;;;;;;;3.15;2.58;;;12.90;99.90;;;;;;5030173;28;20084;-74
2022/05/26 13:40:17;;;;;;;8.07;3.65;;;12.90;99.90;;;;;;5031412;28;20067;-74
2022/05/26 13:42:50;;;;;;;5.22;3.70;;;12.80;99.90;;;;;;5033170;28;21366;-73
2022/05/26 13:45:27;;;;;;;7.22;3.60;;;12.80;99.90;;;;;;5031588;28;20025;-73
2022/05/26 13:48:30;;;;;;;7.15;3.50;;;12.80;99.90;;;;;;5030373;28;20056;-73
2022/05/26 13:51:23;;;;;;;5.57;4.00;;;12.70;99.90;;;;;;5032139;28;20113;-72
2022/05/26 13:54:28;;;;;;;7.13;4.00;;;12.70;99.90;;;;;;5040832;28;20041;-73
2022/05/26 13:56:58;;;;;;;9.13;4.65;;;12.70;99.90;;;;;;5029933;28;20087;-72
2022/05/26 13:59:26;;;;;;;9.43;5.57;;;12.70;99.90;;;;;;5042702;28;20483;-72
2022/05/26 14:02:06;;;;;;;9.30;5.47;;;12.80;99.90;;;;;;5030711;28;20020;-71
2022/05/26 14:04:40;;;;;;;10.95;6.40;;;12.80;99.90;;;;;;5033715;28;20033;-72
2022/05/26 14:07:28;;;;;;;10.77;8.02;;;12.90;99.90;;;;;;5029015;28;20040;-74